sensor_id;sensor_type;location;lat;lon;timestamp;P1;durP1;ratioP1;P2;durP2;ratioP2
49972;SDS011;65693;49.798;10.968;2023-06-04T00:02:02;2.10;;;1.15;;
49972;SDS011;65693;49.798;10.968;2023-06-04T00:04:29;2.55;;;1.30;;
49972;SDS011;65693;49.798;10.968;2023-06-04T00:06:56;1.33;;;0.98;;
49972;SDS011;65693;49.798;10.968;2023-06-04T00:09:22;2.15;;;1.38;;
49972;SDS011;65693;49.798;10.968;2023-06-04T00:11:50;2.88;;;1.60;;
49972;SDS011;65693;49.798;10.968;2023-06-04T00:14:16;2.58;;;1.20;;
49972;SDS011;65693;49.798;10.968;2023-06-04T00:16:43;2.08;;;1.25;;
49972;SDS011;65693;49.798;10.968;2023-06-04T00:19:09;2.58;;;1.70;;
49972;SDS011;65693;49.798;10.968;2023-06-04T00:21:36;2.55;;;1.52;;
49972;SDS011;65693;49.798;10.968;2023-06-04T00:24:03;1.77;;;1.13;;
49972;SDS011;65693;49.798;10.968;2023-06-04T00:26:29;2.15;;;1.30;;
49972;SDS011;65693;49.798;10.968;2023-06-04T00:28:57;1.80;;;1.17;;
49972;SDS011;65693;49.798;10.968;2023-06-04T00:31:23;1.75;;;1.10;;
49972;SDS011;65693;49.798;10.968;2023-06-04T00:33:50;2.65;;;1.50;;
49972;SDS011;65693;49.798;10.968;2023-06-04T00:36:17;1.95;;;1.08;;
49972;SDS011;65693;49.798;10.968;2023-06-04T00:38:44;2.33;;;1.40;;
49972;SDS011;65693;49.798;10.968;2023-06-04T00:41:10;2.15;;;1.25;;
49972;SDS011;65693;49.798;10.968;2023-06-04T00:43:36;2.33;;;1.30;;
49972;SDS011;65693;49.798;10.968;2023-06-04T00:46:05;2.25;;;1.20;;
49972;SDS011;65693;49.798;10.968;2023-06-04T00:48:31;1.92;;;1.30;;
49972;SDS011;65693;49.798;10.968;2023-06-04T00:50:59;2.65;;;1.52;;
49972;SDS011;65693;49.798;10.968;2023-06-04T00:53:26;2.15;;;1.27;;
49972;SDS011;65693;49.798;10.968;2023-06-04T00:55:52;2.25;;;1.40;;
49972;SDS011;65693;49.798;10.968;2023-06-04T00:58:19;2.22;;;1.35;;
49972;SDS011;65693;49.798;10.968;2023-06-04T01:00:46;2.33;;;1.27;;
49972;SDS011;65693;49.798;10.968;2023-06-04T01:03:14;2.22;;;1.27;;
49972;SDS011;65693;49.798;10.968;2023-06-04T01:05:48;1.85;;;1.25;;
49972;SDS011;65693;49.798;10.968;2023-06-04T01:08:20;2.47;;;1.40;;
49972;SDS011;65693;49.798;10.968;2023-06-04T01:10:50;1.63;;;1.10;;
49972;SDS011;65693;49.798;10.968;2023-06-04T01:13:17;3.28;;;1.85;;
49972;SDS011;65693;49.798;10.968;2023-06-04T01:15:43;1.73;;;1.25;;
49972;SDS011;65693;49.798;10.968;2023-06-04T01:18:10;2.38;;;1.45;;
49972;SDS011;65693;49.798;10.968;2023-06-04T01:20:53;2.28;;;1.38;;
49972;SDS011;65693;49.798;10.968;2023-06-04T01:23:30;3.05;;;1.40;;
49972;SDS011;65693;49.798;10.968;2023-06-04T01:26:04;1.90;;;1.23;;
49972;SDS011;65693;49.798;10.968;2023-06-04T01:28:31;1.75;;;1.20;;
49972;SDS011;65693;49.798;10.968;2023-06-04T01:30:59;2.13;;;1.23;;
49972;SDS011;65693;49.798;10.968;2023-06-04T01:33:27;1.83;;;1.23;;
49972;SDS011;65693;49.798;10.968;2023-06-04T01:35:55;2.25;;;1.30;;
49972;SDS011;65693;49.798;10.968;2023-06-04T01:38:22;2.22;;;1.40;;
49972;SDS011;65693;49.798;10.968;2023-06-04T01:40:48;2.38;;;1.27;;
49972;SDS011;65693;49.798;10.968;2023-06-04T01:43:15;1.92;;;1.35;;
49972;SDS011;65693;49.798;10.968;2023-06-04T01:45:42;3.10;;;1.48;;
49972;SDS011;65693;49.798;10.968;2023-06-04T01:48:08;1.75;;;1.20;;
49972;SDS011;65693;49.798;10.968;2023-06-04T01:50:35;2.33;;;1.40;;
49972;SDS011;65693;49.798;10.968;2023-06-04T01:53:03;3.05;;;1.50;;
49972;SDS011;65693;49.798;10.968;2023-06-04T01:55:29;2.33;;;1.48;;
49972;SDS011;65693;49.798;10.968;2023-06-04T01:57:58;2.30;;;1.38;;
49972;SDS011;65693;49.798;10.968;2023-06-04T02:00:24;1.63;;;1.13;;
49972;SDS011;65693;49.798;10.968;2023-06-04T02:02:51;2.67;;;1.40;;
49972;SDS011;65693;49.798;10.968;2023-06-04T02:05:18;1.80;;;1.25;;
49972;SDS011;65693;49.798;10.968;2023-06-04T02:07:45;1.77;;;1.20;;
49972;SDS011;65693;49.798;10.968;2023-06-04T02:10:14;2.03;;;1.20;;
49972;SDS011;65693;49.798;10.968;2023-06-04T02:12:52;2.10;;;1.20;;
49972;SDS011;65693;49.798;10.968;2023-06-04T02:15:19;1.80;;;1.13;;
49972;SDS011;65693;49.798;10.968;2023-06-04T02:17:47;1.90;;;1.30;;
49972;SDS011;65693;49.798;10.968;2023-06-04T02:20:15;2.05;;;1.15;;
49972;SDS011;65693;49.798;10.968;2023-06-04T02:22:42;2.88;;;1.60;;
49972;SDS011;65693;49.798;10.968;2023-06-04T02:25:08;1.48;;;1.20;;
49972;SDS011;65693;49.798;10.968;2023-06-04T02:27:36;2.33;;;1.30;;
49972;SDS011;65693;49.798;10.968;2023-06-04T02:30:03;2.42;;;1.27;;
49972;SDS011;65693;49.798;10.968;2023-06-04T02:32:31;1.92;;;1.00;;
49972;SDS011;65693;49.798;10.968;2023-06-04T02:34:58;1.63;;;1.20;;
49972;SDS011;65693;49.798;10.968;2023-06-04T02:37:25;2.42;;;1.30;;
49972;SDS011;65693;49.798;10.968;2023-06-04T02:39:51;2.15;;;1.23;;
49972;SDS011;65693;49.798;10.968;2023-06-04T02:42:18;2.15;;;1.23;;
49972;SDS011;65693;49.798;10.968;2023-06-04T02:44:45;1.90;;;1.10;;
49972;SDS011;65693;49.798;10.968;2023-06-04T02:47:12;2.40;;;1.67;;
49972;SDS011;65693;49.798;10.968;2023-06-04T02:49:38;2.35;;;1.30;;
49972;SDS011;65693;49.798;10.968;2023-06-04T02:52:05;2.08;;;1.33;;
49972;SDS011;65693;49.798;10.968;2023-06-04T02:54:32;2.55;;;1.30;;
49972;SDS011;65693;49.798;10.968;2023-06-04T02:56:58;2.25;;;1.30;;
49972;SDS011;65693;49.798;10.968;2023-06-04T02:59:25;2.53;;;1.30;;
49972;SDS011;65693;49.798;10.968;2023-06-04T03:01:53;2.05;;;1.27;;
49972;SDS011;65693;49.798;10.968;2023-06-04T03:04:20;1.90;;;1.23;;
49972;SDS011;65693;49.798;10.968;2023-06-04T03:06:46;2.70;;;1.40;;
49972;SDS011;65693;49.798;10.968;2023-06-04T03:09:12;1.70;;;1.00;;
49972;SDS011;65693;49.798;10.968;2023-06-04T03:11:39;1.90;;;1.20;;
49972;SDS011;65693;49.798;10.968;2023-06-04T03:14:06;2.88;;;1.23;;
49972;SDS011;65693;49.798;10.968;2023-06-04T03:16:32;2.33;;;1.23;;
49972;SDS011;65693;49.798;10.968;2023-06-04T03:19:00;1.83;;;1.20;;
49972;SDS011;65693;49.798;10.968;2023-06-04T03:21:26;1.50;;;1.13;;
49972;SDS011;65693;49.798;10.968;2023-06-04T03:23:53;2.28;;;1.30;;
49972;SDS011;65693;49.798;10.968;2023-06-04T03:26:20;2.88;;;1.20;;
49972;SDS011;65693;49.798;10.968;2023-06-04T03:28:46;2.55;;;1.67;;
49972;SDS011;65693;49.798;10.968;2023-06-04T03:31:13;3.20;;;1.30;;
49972;SDS011;65693;49.798;10.968;2023-06-04T03:33:39;2.05;;;1.50;;
49972;SDS011;65693;49.798;10.968;2023-06-04T03:36:07;2.92;;;1.60;;
49972;SDS011;65693;49.798;10.968;2023-06-04T03:38:34;2.63;;;2.00;;
49972;SDS011;65693;49.798;10.968;2023-06-04T03:41:00;2.58;;;1.33;;
49972;SDS011;65693;49.798;10.968;2023-06-04T03:43:27;2.58;;;1.48;;
49972;SDS011;65693;49.798;10.968;2023-06-04T03:45:53;2.20;;;1.30;;
49972;SDS011;65693;49.798;10.968;2023-06-04T03:48:20;2.30;;;1.10;;
49972;SDS011;65693;49.798;10.968;2023-06-04T03:50:46;2.03;;;1.30;;
49972;SDS011;65693;49.798;10.968;2023-06-04T03:53:15;2.35;;;1.33;;
49972;SDS011;65693;49.798;10.968;2023-06-04T03:55:42;2.20;;;1.20;;
49972;SDS011;65693;49.798;10.968;2023-06-04T03:58:08;2.05;;;1.30;;
49972;SDS011;65693;49.798;10.968;2023-06-04T04:00:36;1.85;;;1.30;;
49972;SDS011;65693;49.798;10.968;2023-06-04T04:03:03;1.50;;;1.08;;
49972;SDS011;65693;49.798;10.968;2023-06-04T04:05:34;2.10;;;1.40;;
49972;SDS011;65693;49.798;10.968;2023-06-04T04:08:01;2.22;;;1.35;;
49972;SDS011;65693;49.798;10.968;2023-06-04T04:10:30;2.58;;;1.13;;
49972;SDS011;65693;49.798;10.968;2023-06-04T04:12:56;1.95;;;1.20;;
49972;SDS011;65693;49.798;10.968;2023-06-04T04:15:23;2.25;;;1.45;;
49972;SDS011;65693;49.798;10.968;2023-06-04T04:17:49;2.00;;;1.30;;
49972;SDS011;65693;49.798;10.968;2023-06-04T04:20:16;2.00;;;1.20;;
49972;SDS011;65693;49.798;10.968;2023-06-04T04:22:43;2.25;;;1.30;;
49972;SDS011;65693;49.798;10.968;2023-06-04T04:25:09;1.83;;;1.23;;
49972;SDS011;65693;49.798;10.968;2023-06-04T04:27:37;2.13;;;1.35;;
49972;SDS011;65693;49.798;10.968;2023-06-04T04:30:06;2.45;;;1.30;;
49972;SDS011;65693;49.798;10.968;2023-06-04T04:32:33;2.55;;;1.35;;
49972;SDS011;65693;49.798;10.968;2023-06-04T04:35:03;2.30;;;1.85;;
49972;SDS011;65693;49.798;10.968;2023-06-04T04:37:30;1.95;;;1.10;;
49972;SDS011;65693;49.798;10.968;2023-06-04T04:39:57;2.85;;;1.23;;
49972;SDS011;65693;49.798;10.968;2023-06-04T04:42:23;2.05;;;1.40;;
49972;SDS011;65693;49.798;10.968;2023-06-04T04:44:51;2.17;;;1.33;;
49972;SDS011;65693;49.798;10.968;2023-06-04T04:47:17;2.00;;;1.30;;
49972;SDS011;65693;49.798;10.968;2023-06-04T04:49:44;2.38;;;1.20;;
49972;SDS011;65693;49.798;10.968;2023-06-04T04:52:10;2.53;;;1.15;;
49972;SDS011;65693;49.798;10.968;2023-06-04T04:54:36;2.80;;;1.30;;
49972;SDS011;65693;49.798;10.968;2023-06-04T04:57:03;1.70;;;1.17;;
49972;SDS011;65693;49.798;10.968;2023-06-04T04:59:32;1.55;;;1.20;;
49972;SDS011;65693;49.798;10.968;2023-06-04T05:02:00;2.95;;;1.40;;
49972;SDS011;65693;49.798;10.968;2023-06-04T05:04:27;1.80;;;1.30;;
49972;SDS011;65693;49.798;10.968;2023-06-04T05:06:53;2.13;;;1.17;;
49972;SDS011;65693;49.798;10.968;2023-06-04T05:09:20;2.47;;;1.27;;
49972;SDS011;65693;49.798;10.968;2023-06-04T05:11:46;2.00;;;1.38;;
49972;SDS011;65693;49.798;10.968;2023-06-04T05:14:12;2.00;;;1.25;;
49972;SDS011;65693;49.798;10.968;2023-06-04T05:16:39;2.22;;;1.38;;
49972;SDS011;65693;49.798;10.968;2023-06-04T05:19:07;2.30;;;1.40;;
49972;SDS011;65693;49.798;10.968;2023-06-04T05:21:36;1.95;;;0.93;;
49972;SDS011;65693;49.798;10.968;2023-06-04T05:24:02;2.05;;;1.48;;
49972;SDS011;65693;49.798;10.968;2023-06-04T05:26:29;1.80;;;1.25;;
49972;SDS011;65693;49.798;10.968;2023-06-04T05:28:55;2.03;;;1.30;;
49972;SDS011;65693;49.798;10.968;2023-06-04T05:31:23;2.35;;;1.42;;
49972;SDS011;65693;49.798;10.968;2023-06-04T05:33:51;2.03;;;1.25;;
49972;SDS011;65693;49.798;10.968;2023-06-04T05:36:19;2.65;;;1.40;;
49972;SDS011;65693;49.798;10.968;2023-06-04T05:38:46;2.85;;;1.45;;
49972;SDS011;65693;49.798;10.968;2023-06-04T05:41:12;2.60;;;1.40;;
49972;SDS011;65693;49.798;10.968;2023-06-04T05:43:38;2.20;;;1.40;;
49972;SDS011;65693;49.798;10.968;2023-06-04T05:46:05;2.63;;;1.40;;
49972;SDS011;65693;49.798;10.968;2023-06-04T05:48:32;3.17;;;1.50;;
49972;SDS011;65693;49.798;10.968;2023-06-04T05:50:59;1.45;;;1.13;;
49972;SDS011;65693;49.798;10.968;2023-06-04T05:53:26;1.40;;;1.17;;
49972;SDS011;65693;49.798;10.968;2023-06-04T05:55:53;2.78;;;1.50;;
49972;SDS011;65693;49.798;10.968;2023-06-04T05:58:19;2.22;;;1.27;;
49972;SDS011;65693;49.798;10.968;2023-06-04T06:00:46;3.00;;;1.42;;
49972;SDS011;65693;49.798;10.968;2023-06-04T06:03:13;2.15;;;1.40;;
49972;SDS011;65693;49.798;10.968;2023-06-04T06:05:41;4.45;;;1.70;;
49972;SDS011;65693;49.798;10.968;2023-06-04T06:08:08;7.57;;;2.28;;
49972;SDS011;65693;49.798;10.968;2023-06-04T06:10:36;2.83;;;1.63;;
49972;SDS011;65693;49.798;10.968;2023-06-04T06:13:02;2.53;;;1.50;;
49972;SDS011;65693;49.798;10.968;2023-06-04T06:15:29;3.17;;;1.70;;
49972;SDS011;65693;49.798;10.968;2023-06-04T06:17:55;4.38;;;1.80;;
49972;SDS011;65693;49.798;10.968;2023-06-04T06:20:21;3.47;;;1.70;;
49972;SDS011;65693;49.798;10.968;2023-06-04T06:22:48;3.40;;;1.75;;
49972;SDS011;65693;49.798;10.968;2023-06-04T06:25:15;2.95;;;1.42;;
49972;SDS011;65693;49.798;10.968;2023-06-04T06:27:43;4.22;;;2.05;;
49972;SDS011;65693;49.798;10.968;2023-06-04T06:30:09;4.32;;;1.90;;
49972;SDS011;65693;49.798;10.968;2023-06-04T06:32:37;3.20;;;1.80;;
49972;SDS011;65693;49.798;10.968;2023-06-04T06:35:04;3.35;;;1.75;;
49972;SDS011;65693;49.798;10.968;2023-06-04T06:37:30;3.13;;;1.83;;
49972;SDS011;65693;49.798;10.968;2023-06-04T06:39:57;5.25;;;1.67;;
49972;SDS011;65693;49.798;10.968;2023-06-04T06:42:23;2.88;;;1.70;;
49972;SDS011;65693;49.798;10.968;2023-06-04T06:44:51;3.10;;;1.70;;
49972;SDS011;65693;49.798;10.968;2023-06-04T06:47:17;3.83;;;1.80;;
49972;SDS011;65693;49.798;10.968;2023-06-04T06:49:43;3.30;;;1.70;;
49972;SDS011;65693;49.798;10.968;2023-06-04T06:52:10;2.88;;;1.58;;
49972;SDS011;65693;49.798;10.968;2023-06-04T06:54:36;4.22;;;1.80;;
49972;SDS011;65693;49.798;10.968;2023-06-04T06:57:03;3.17;;;1.83;;
49972;SDS011;65693;49.798;10.968;2023-06-04T06:59:33;2.15;;;1.40;;
49972;SDS011;65693;49.798;10.968;2023-06-04T07:02:02;4.18;;;1.88;;
49972;SDS011;65693;49.798;10.968;2023-06-04T07:04:28;3.10;;;1.60;;
49972;SDS011;65693;49.798;10.968;2023-06-04T07:06:55;2.33;;;1.63;;
49972;SDS011;65693;49.798;10.968;2023-06-04T07:09:21;3.75;;;2.00;;
49972;SDS011;65693;49.798;10.968;2023-06-04T07:11:48;4.20;;;1.75;;
49972;SDS011;65693;49.798;10.968;2023-06-04T07:14:14;3.30;;;1.55;;
49972;SDS011;65693;49.798;10.968;2023-06-04T07:16:40;2.85;;;1.77;;
49972;SDS011;65693;49.798;10.968;2023-06-04T07:19:08;2.30;;;1.50;;
49972;SDS011;65693;49.798;10.968;2023-06-04T07:21:35;3.22;;;1.58;;
49972;SDS011;65693;49.798;10.968;2023-06-04T07:24:01;3.38;;;1.70;;
49972;SDS011;65693;49.798;10.968;2023-06-04T07:26:27;5.03;;;1.80;;
49972;SDS011;65693;49.798;10.968;2023-06-04T07:28:55;3.10;;;1.85;;
49972;SDS011;65693;49.798;10.968;2023-06-04T07:31:22;3.40;;;1.67;;
49972;SDS011;65693;49.798;10.968;2023-06-04T07:33:48;4.32;;;1.60;;
49972;SDS011;65693;49.798;10.968;2023-06-04T07:36:16;2.70;;;1.75;;
49972;SDS011;65693;49.798;10.968;2023-06-04T07:38:43;3.83;;;1.70;;
49972;SDS011;65693;49.798;10.968;2023-06-04T07:41:09;2.97;;;1.67;;
49972;SDS011;65693;49.798;10.968;2023-06-04T07:43:36;2.80;;;1.80;;
49972;SDS011;65693;49.798;10.968;2023-06-04T07:46:03;3.95;;;2.00;;
49972;SDS011;65693;49.798;10.968;2023-06-04T07:48:30;3.15;;;1.50;;
49972;SDS011;65693;49.798;10.968;2023-06-04T07:50:56;3.40;;;1.52;;
49972;SDS011;65693;49.798;10.968;2023-06-04T07:53:24;3.45;;;1.70;;
49972;SDS011;65693;49.798;10.968;2023-06-04T07:55:51;2.25;;;1.55;;
49972;SDS011;65693;49.798;10.968;2023-06-04T07:58:18;3.17;;;1.58;;
49972;SDS011;65693;49.798;10.968;2023-06-04T08:00:45;3.67;;;1.75;;
49972;SDS011;65693;49.798;10.968;2023-06-04T08:03:11;3.03;;;1.50;;
49972;SDS011;65693;49.798;10.968;2023-06-04T08:05:38;3.22;;;1.98;;
49972;SDS011;65693;49.798;10.968;2023-06-04T08:08:04;2.75;;;1.58;;
49972;SDS011;65693;49.798;10.968;2023-06-04T08:10:32;2.15;;;1.48;;
49972;SDS011;65693;49.798;10.968;2023-06-04T08:12:59;3.35;;;1.83;;
49972;SDS011;65693;49.798;10.968;2023-06-04T08:15:25;4.22;;;1.60;;
49972;SDS011;65693;49.798;10.968;2023-06-04T08:17:51;2.50;;;1.70;;
49972;SDS011;65693;49.798;10.968;2023-06-04T08:20:18;4.88;;;1.90;;
49972;SDS011;65693;49.798;10.968;2023-06-04T08:22:44;2.78;;;1.60;;
49972;SDS011;65693;49.798;10.968;2023-06-04T08:25:11;3.00;;;1.83;;
49972;SDS011;65693;49.798;10.968;2023-06-04T08:27:40;3.75;;;1.48;;
49972;SDS011;65693;49.798;10.968;2023-06-04T08:30:07;2.83;;;1.65;;
49972;SDS011;65693;49.798;10.968;2023-06-04T08:32:35;2.85;;;1.60;;
49972;SDS011;65693;49.798;10.968;2023-06-04T08:35:01;2.90;;;1.67;;
49972;SDS011;65693;49.798;10.968;2023-06-04T08:37:28;4.05;;;1.67;;
49972;SDS011;65693;49.798;10.968;2023-06-04T08:39:54;2.58;;;1.33;;
49972;SDS011;65693;49.798;10.968;2023-06-04T08:42:22;3.50;;;1.63;;
49972;SDS011;65693;49.798;10.968;2023-06-04T08:44:55;3.28;;;1.55;;
49972;SDS011;65693;49.798;10.968;2023-06-04T08:47:23;3.05;;;1.58;;
49972;SDS011;65693;49.798;10.968;2023-06-04T08:49:51;2.40;;;1.63;;
49972;SDS011;65693;49.798;10.968;2023-06-04T08:52:18;2.97;;;1.52;;
49972;SDS011;65693;49.798;10.968;2023-06-04T08:54:47;2.20;;;1.55;;
49972;SDS011;65693;49.798;10.968;2023-06-04T08:57:15;2.67;;;1.48;;
49972;SDS011;65693;49.798;10.968;2023-06-04T08:59:42;2.95;;;1.60;;
49972;SDS011;65693;49.798;10.968;2023-06-04T09:02:12;2.67;;;1.60;;
49972;SDS011;65693;49.798;10.968;2023-06-04T09:04:39;5.07;;;1.77;;
49972;SDS011;65693;49.798;10.968;2023-06-04T09:07:05;3.58;;;1.80;;
49972;SDS011;65693;49.798;10.968;2023-06-04T09:09:34;2.83;;;1.70;;
49972;SDS011;65693;49.798;10.968;2023-06-04T09:12:05;4.00;;;2.20;;
49972;SDS011;65693;49.798;10.968;2023-06-04T09:14:35;3.58;;;1.73;;
49972;SDS011;65693;49.798;10.968;2023-06-04T09:17:02;3.30;;;1.80;;
49972;SDS011;65693;49.798;10.968;2023-06-04T09:19:30;3.15;;;1.70;;
49972;SDS011;65693;49.798;10.968;2023-06-04T09:21:57;2.97;;;1.73;;
49972;SDS011;65693;49.798;10.968;2023-06-04T09:24:26;3.35;;;1.85;;
49972;SDS011;65693;49.798;10.968;2023-06-04T09:27:09;3.05;;;1.67;;
49972;SDS011;65693;49.798;10.968;2023-06-04T09:29:36;3.85;;;1.88;;
49972;SDS011;65693;49.798;10.968;2023-06-04T09:32:02;3.13;;;1.58;;
49972;SDS011;65693;49.798;10.968;2023-06-04T09:34:31;4.65;;;1.70;;
49972;SDS011;65693;49.798;10.968;2023-06-04T09:36:57;6.30;;;1.80;;
49972;SDS011;65693;49.798;10.968;2023-06-04T09:39:24;3.80;;;1.77;;
49972;SDS011;65693;49.798;10.968;2023-06-04T09:41:58;2.75;;;1.90;;
49972;SDS011;65693;49.798;10.968;2023-06-04T09:44:25;4.35;;;1.90;;
49972;SDS011;65693;49.798;10.968;2023-06-04T09:47:03;3.85;;;1.80;;
49972;SDS011;65693;49.798;10.968;2023-06-04T09:49:39;3.10;;;1.73;;
49972;SDS011;65693;49.798;10.968;2023-06-04T09:52:06;3.03;;;1.73;;
49972;SDS011;65693;49.798;10.968;2023-06-04T09:54:35;3.15;;;1.75;;
49972;SDS011;65693;49.798;10.968;2023-06-04T09:57:01;3.88;;;2.45;;
49972;SDS011;65693;49.798;10.968;2023-06-04T09:59:29;3.40;;;1.77;;
49972;SDS011;65693;49.798;10.968;2023-06-04T10:01:59;3.28;;;2.15;;
49972;SDS011;65693;49.798;10.968;2023-06-04T10:04:25;3.92;;;1.80;;
49972;SDS011;65693;49.798;10.968;2023-06-04T10:06:55;5.18;;;1.40;;
49972;SDS011;65693;49.798;10.968;2023-06-04T10:09:22;3.67;;;1.75;;
49972;SDS011;65693;49.798;10.968;2023-06-04T10:11:52;3.53;;;2.03;;
49972;SDS011;65693;49.798;10.968;2023-06-04T10:14:22;4.18;;;1.48;;
49972;SDS011;65693;49.798;10.968;2023-06-04T10:16:50;3.67;;;1.80;;
49972;SDS011;65693;49.798;10.968;2023-06-04T10:19:17;3.63;;;1.80;;
49972;SDS011;65693;49.798;10.968;2023-06-04T10:21:44;2.78;;;1.65;;
49972;SDS011;65693;49.798;10.968;2023-06-04T10:24:13;5.78;;;1.67;;
49972;SDS011;65693;49.798;10.968;2023-06-04T10:26:40;3.70;;;1.90;;
49972;SDS011;65693;49.798;10.968;2023-06-04T10:29:08;3.78;;;1.65;;
49972;SDS011;65693;49.798;10.968;2023-06-04T10:31:36;4.05;;;1.55;;
49972;SDS011;65693;49.798;10.968;2023-06-04T10:34:03;3.15;;;1.80;;
49972;SDS011;65693;49.798;10.968;2023-06-04T10:36:30;4.10;;;2.08;;
49972;SDS011;65693;49.798;10.968;2023-06-04T10:38:56;5.10;;;1.80;;
49972;SDS011;65693;49.798;10.968;2023-06-04T10:41:24;3.95;;;1.88;;
49972;SDS011;65693;49.798;10.968;2023-06-04T10:43:52;4.55;;;1.90;;
49972;SDS011;65693;49.798;10.968;2023-06-04T10:46:36;3.17;;;1.80;;
49972;SDS011;65693;49.798;10.968;2023-06-04T10:49:03;2.85;;;1.50;;
49972;SDS011;65693;49.798;10.968;2023-06-04T10:51:30;3.50;;;1.70;;
49972;SDS011;65693;49.798;10.968;2023-06-04T10:53:57;5.07;;;2.00;;
49972;SDS011;65693;49.798;10.968;2023-06-04T10:56:26;5.50;;;1.75;;
49972;SDS011;65693;49.798;10.968;2023-06-04T10:58:54;3.25;;;1.60;;
49972;SDS011;65693;49.798;10.968;2023-06-04T11:01:24;3.40;;;1.80;;
49972;SDS011;65693;49.798;10.968;2023-06-04T11:03:51;4.10;;;1.70;;
49972;SDS011;65693;49.798;10.968;2023-06-04T11:06:18;4.05;;;1.90;;
49972;SDS011;65693;49.798;10.968;2023-06-04T11:08:46;3.50;;;1.80;;
49972;SDS011;65693;49.798;10.968;2023-06-04T11:11:13;2.97;;;1.75;;
49972;SDS011;65693;49.798;10.968;2023-06-04T11:13:42;4.95;;;2.35;;
49972;SDS011;65693;49.798;10.968;2023-06-04T11:16:15;3.25;;;1.63;;
49972;SDS011;65693;49.798;10.968;2023-06-04T11:18:43;3.25;;;1.77;;
49972;SDS011;65693;49.798;10.968;2023-06-04T11:21:09;5.07;;;1.90;;
49972;SDS011;65693;49.798;10.968;2023-06-04T11:23:39;3.35;;;1.80;;
49972;SDS011;65693;49.798;10.968;2023-06-04T11:26:06;3.10;;;1.88;;
49972;SDS011;65693;49.798;10.968;2023-06-04T11:28:32;2.80;;;1.70;;
49972;SDS011;65693;49.798;10.968;2023-06-04T11:31:00;4.97;;;2.05;;
49972;SDS011;65693;49.798;10.968;2023-06-04T11:33:29;4.40;;;1.67;;
49972;SDS011;65693;49.798;10.968;2023-06-04T11:35:55;3.90;;;1.83;;
49972;SDS011;65693;49.798;10.968;2023-06-04T11:38:22;2.33;;;1.58;;
49972;SDS011;65693;49.798;10.968;2023-06-04T11:40:55;4.10;;;1.80;;
49972;SDS011;65693;49.798;10.968;2023-06-04T11:43:23;2.95;;;1.60;;
49972;SDS011;65693;49.798;10.968;2023-06-04T11:45:50;3.45;;;1.80;;
49972;SDS011;65693;49.798;10.968;2023-06-04T11:48:17;3.78;;;1.73;;
49972;SDS011;65693;49.798;10.968;2023-06-04T11:50:44;3.63;;;2.20;;
49972;SDS011;65693;49.798;10.968;2023-06-04T11:53:10;4.30;;;1.70;;
49972;SDS011;65693;49.798;10.968;2023-06-04T11:55:37;3.28;;;1.90;;
49972;SDS011;65693;49.798;10.968;2023-06-04T11:58:04;2.80;;;1.75;;
49972;SDS011;65693;49.798;10.968;2023-06-04T12:00:31;3.67;;;1.95;;
49972;SDS011;65693;49.798;10.968;2023-06-04T12:02:57;4.00;;;2.25;;
49972;SDS011;65693;49.798;10.968;2023-06-04T12:05:29;5.75;;;1.90;;
49972;SDS011;65693;49.798;10.968;2023-06-04T12:08:03;4.55;;;1.80;;
49972;SDS011;65693;49.798;10.968;2023-06-04T12:10:35;3.72;;;1.75;;
49972;SDS011;65693;49.798;10.968;2023-06-04T12:13:02;4.32;;;1.90;;
49972;SDS011;65693;49.798;10.968;2023-06-04T12:15:29;2.63;;;1.70;;
49972;SDS011;65693;49.798;10.968;2023-06-04T12:17:55;3.28;;;1.92;;
49972;SDS011;65693;49.798;10.968;2023-06-04T12:20:33;4.13;;;2.00;;
49972;SDS011;65693;49.798;10.968;2023-06-04T12:23:00;6.22;;;2.03;;
49972;SDS011;65693;49.798;10.968;2023-06-04T12:25:28;4.60;;;1.88;;
49972;SDS011;65693;49.798;10.968;2023-06-04T12:27:55;4.00;;;2.05;;
49972;SDS011;65693;49.798;10.968;2023-06-04T12:30:22;4.32;;;2.00;;
49972;SDS011;65693;49.798;10.968;2023-06-04T12:32:49;4.43;;;2.17;;
49972;SDS011;65693;49.798;10.968;2023-06-04T12:35:15;4.15;;;1.90;;
49972;SDS011;65693;49.798;10.968;2023-06-04T12:37:43;5.32;;;2.20;;
49972;SDS011;65693;49.798;10.968;2023-06-04T12:40:10;7.65;;;1.90;;
49972;SDS011;65693;49.798;10.968;2023-06-04T12:42:38;5.47;;;1.80;;
49972;SDS011;65693;49.798;10.968;2023-06-04T12:45:05;3.47;;;2.15;;
49972;SDS011;65693;49.798;10.968;2023-06-04T12:47:32;7.10;;;2.00;;
49972;SDS011;65693;49.798;10.968;2023-06-04T12:49:59;3.75;;;2.15;;
49972;SDS011;65693;49.798;10.968;2023-06-04T12:52:25;4.45;;;1.83;;
49972;SDS011;65693;49.798;10.968;2023-06-04T12:54:53;4.30;;;1.80;;
49972;SDS011;65693;49.798;10.968;2023-06-04T12:57:20;3.38;;;1.70;;
49972;SDS011;65693;49.798;10.968;2023-06-04T12:59:46;4.43;;;2.00;;
49972;SDS011;65693;49.798;10.968;2023-06-04T13:02:12;3.20;;;1.90;;
49972;SDS011;65693;49.798;10.968;2023-06-04T13:04:39;5.97;;;2.05;;
49972;SDS011;65693;49.798;10.968;2023-06-04T13:07:06;5.22;;;1.83;;
49972;SDS011;65693;49.798;10.968;2023-06-04T13:09:32;3.55;;;1.90;;
49972;SDS011;65693;49.798;10.968;2023-06-04T13:12:01;5.10;;;2.38;;
49972;SDS011;65693;49.798;10.968;2023-06-04T13:14:28;3.05;;;1.67;;
49972;SDS011;65693;49.798;10.968;2023-06-04T13:16:58;5.03;;;1.80;;
49972;SDS011;65693;49.798;10.968;2023-06-04T13:19:24;4.43;;;1.80;;
49972;SDS011;65693;49.798;10.968;2023-06-04T13:21:51;5.80;;;1.90;;
49972;SDS011;65693;49.798;10.968;2023-06-04T13:24:17;5.75;;;2.03;;
49972;SDS011;65693;49.798;10.968;2023-06-04T13:26:43;4.45;;;1.85;;
49972;SDS011;65693;49.798;10.968;2023-06-04T13:29:11;4.13;;;1.83;;
49972;SDS011;65693;49.798;10.968;2023-06-04T13:31:38;5.95;;;2.10;;
49972;SDS011;65693;49.798;10.968;2023-06-04T13:34:05;3.38;;;1.90;;
49972;SDS011;65693;49.798;10.968;2023-06-04T13:36:32;4.78;;;1.92;;
49972;SDS011;65693;49.798;10.968;2023-06-04T13:38:58;4.22;;;2.10;;
49972;SDS011;65693;49.798;10.968;2023-06-04T13:41:25;4.05;;;1.85;;
49972;SDS011;65693;49.798;10.968;2023-06-04T13:43:51;4.65;;;2.00;;
49972;SDS011;65693;49.798;10.968;2023-06-04T13:46:19;3.65;;;1.90;;
49972;SDS011;65693;49.798;10.968;2023-06-04T13:48:45;3.63;;;2.13;;
49972;SDS011;65693;49.798;10.968;2023-06-04T13:51:12;3.70;;;2.00;;
49972;SDS011;65693;49.798;10.968;2023-06-04T13:53:38;3.67;;;2.00;;
49972;SDS011;65693;49.798;10.968;2023-06-04T13:56:05;3.85;;;2.20;;
49972;SDS011;65693;49.798;10.968;2023-06-04T13:58:31;6.15;;;2.47;;
49972;SDS011;65693;49.798;10.968;2023-06-04T14:00:57;5.57;;;2.55;;
49972;SDS011;65693;49.798;10.968;2023-06-04T14:03:25;3.30;;;1.98;;
49972;SDS011;65693;49.798;10.968;2023-06-04T14:05:52;10.00;;;2.58;;
49972;SDS011;65693;49.798;10.968;2023-06-04T14:08:18;10.07;;;2.30;;
49972;SDS011;65693;49.798;10.968;2023-06-04T14:10:44;7.70;;;2.75;;
49972;SDS011;65693;49.798;10.968;2023-06-04T14:13:11;5.65;;;2.13;;
49972;SDS011;65693;49.798;10.968;2023-06-04T14:15:37;4.25;;;2.10;;
49972;SDS011;65693;49.798;10.968;2023-06-04T14:18:04;4.13;;;2.05;;
49972;SDS011;65693;49.798;10.968;2023-06-04T14:20:32;7.50;;;2.47;;
49972;SDS011;65693;49.798;10.968;2023-06-04T14:22:58;4.88;;;2.38;;
49972;SDS011;65693;49.798;10.968;2023-06-04T14:25:25;3.60;;;1.83;;
49972;SDS011;65693;49.798;10.968;2023-06-04T14:27:52;4.68;;;2.13;;
49972;SDS011;65693;49.798;10.968;2023-06-04T14:30:19;3.88;;;2.20;;
49972;SDS011;65693;49.798;10.968;2023-06-04T14:32:45;3.88;;;2.00;;
49972;SDS011;65693;49.798;10.968;2023-06-04T14:35:11;3.90;;;2.17;;